Time;durP1;ratioP1;P1;durP2;ratioP2;P2;SDS_P1;SDS_P2;PMS_P1;PMS_P2;Temp;Humidity;BMP_temperature;BMP_pressure;BME280_temperature;BME280_humidity;BME280_pressure;Samples;Min_cycle;Max_cycle;Signal;HPM_P1;HPM_P2
2023/01/18 00:00:44;;;;;;;18.80;8.67;;;;;;;-5.64;100.00;99006.31;5012234;28;20030;-86
2023/01/18 00:03:11;;;;;;;17.13;9.05;;;;;;;-5.68;100.00;99007.75;5011980;28;20551;-86
2023/01/18 00:05:40;;;;;;;21.77;8.85;;;;;;;-5.72;100.00;99006.50;5026735;28;20033;-86
2023/01/18 00:08:17;;;;;;;19.92;8.25;;;;;;;-5.74;100.00;99010.31;5031285;28;20122;-86
2023/01/18 00:10:43;;;;;;;18.15;8.70;;;;;;;-5.87;100.00;98992.81;5031750;28;20385;-86
2023/01/18 00:13:09;;;;;;;23.00;8.90;;;;;;;-5.90;100.00;98985.38;5016299;28;20033;-87
2023/01/18 00:15:35;;;;;;;18.88;8.43;;;;;;;-5.81;100.00;98999.84;5011024;28;20030;-86
2023/01/18 00:18:01;;;;;;;20.85;8.88;;;;;;;-5.81;100.00;99005.88;5011215;28;20022;-86
2023/01/18 00:20:28;;;;;;;20.53;8.80;;;;;;;-5.85;100.00;98989.00;5012932;28;20540;-86
2023/01/18 00:22:55;;;;;;;14.65;7.82;;;;;;;-5.83;100.00;99004.44;5010404;28;20026;-86
2023/01/18 00:25:22;;;;;;;20.70;8.32;;;;;;;-5.95;100.00;99001.63;5012038;28;20030;-86
2023/01/18 00:27:52;;;;;;;17.50;8.48;;;;;;;-5.85;100.00;99007.28;5011134;28;20044;-86
2023/01/18 00:30:20;;;;;;;21.70;8.20;;;;;;;-5.88;100.00;99006.88;5011890;28;20071;-86
2023/01/18 00:32:47;;;;;;;19.43;8.23;;;;;;;-5.89;100.00;99007.84;5020900;28;20362;-86
2023/01/18 00:35:14;;;;;;;19.17;8.20;;;;;;;-5.95;100.00;99015.44;5014961;28;20048;-86
2023/01/18 00:37:40;;;;;;;21.63;7.70;;;;;;;-5.94;100.00;99011.84;5010807;28;20136;-85
2023/01/18 00:40:07;;;;;;;20.77;7.87;;;;;;;-5.93;100.00;99023.06;5011151;28;20123;-86
2023/01/18 00:45:16;;;;;;;17.35;8.00;;;;;;;-5.95;100.00;99004.22;5030494;28;20036;-86
2023/01/18 00:47:42;;;;;;;21.27;8.57;;;;;;;-5.89;100.00;99024.31;5028387;28;20037;-86
2023/01/18 00:50:08;;;;;;;20.33;8.17;;;;;;;-5.89;100.00;99023.50;5023496;28;20296;-85
2023/01/18 00:52:33;;;;;;;14.60;7.95;;;;;;;-5.91;100.00;99021.09;5002603;28;20133;-86
2023/01/18 00:55:03;;;;;;;16.03;7.40;;;;;;;-5.91;100.00;99023.69;4995846;28;20025;-86
2023/01/18 00:57:28;;;;;;;21.85;8.23;;;;;;;-6.03;100.00;99014.84;5010777;28;20017;-87
2023/01/18 00:59:54;;;;;;;15.57;7.37;;;;;;;-6.03;100.00;99017.44;5009916;28;20082;-86
2023/01/18 01:02:19;;;;;;;21.57;8.00;;;;;;;-6.02;100.00;99016.47;5022900;28;20030;-87
2023/01/18 01:07:28;;;;;;;16.58;8.02;;;;;;;-5.88;100.00;99030.34;5025821;28;20033;-85
2023/01/18 01:09:56;;;;;;;13.37;7.40;;;;;;;-5.91;100.00;99026.31;5033076;28;20026;-86
2023/01/18 01:26:09;;;;;;;20.87;7.87;;;;;;;-5.74;100.00;99031.19;5037394;28;20275;-86
2023/01/18 01:28:36;;;;;;;17.42;8.32;;;;;;;-5.78;100.00;99033.38;5030308;28;20021;-87
2023/01/18 01:31:05;;;;;;;19.23;8.27;;;;;;;-5.71;100.00;99043.84;5026990;28;20034;-87
2023/01/18 01:33:32;;;;;;;18.10;7.90;;;;;;;-5.78;100.00;99030.78;5024066;28;20056;-86
2023/01/18 01:36:00;;;;;;;15.32;7.78;;;;;;;-5.73;100.00;99044.06;5028762;28;20509;-86
2023/01/18 01:38:27;;;;;;;21.77;8.10;;;;;;;-5.79;100.00;99055.25;5028373;28;20141;-86
2023/01/18 01:41:04;;;;;;;19.63;7.77;;;;;;;-5.87;100.00;99056.22;5029911;28;20288;-86
2023/01/18 01:43:49;;;;;;;19.60;8.02;;;;;;;-5.90;100.00;99066.25;5028486;28;20060;-86
2023/01/18 01:46:18;;;;;;;17.38;7.53;;;;;;;-6.00;100.00;99056.19;5014537;28;20037;-86
2023/01/18 01:48:46;;;;;;;17.15;7.68;;;;;;;-6.09;100.00;99052.94;5009649;28;20575;-86
2023/01/18 01:51:11;;;;;;;18.80;7.70;;;;;;;-6.15;100.00;99051.09;5008880;28;20030;-86
2023/01/18 01:53:37;;;;;;;18.67;7.33;;;;;;;-6.18;100.00;99062.72;5024129;28;20046;-86
2023/01/18 01:56:03;;;;;;;16.27;7.20;;;;;;;-6.18;100.00;99064.50;5030389;28;20022;-86
2023/01/18 01:58:30;;;;;;;14.07;7.45;;;;;;;-6.26;100.00;99055.84;5026192;28;20657;-86
2023/01/18 02:00:56;;;;;;;20.92;7.65;;;;;;;-6.26;100.00;99066.28;5009145;28;20109;-86
2023/01/18 02:03:23;;;;;;;13.73;6.97;;;;;;;-6.25;100.00;99064.47;5012525;28;20113;-86
2023/01/18 02:06:00;;;;;;;15.60;7.10;;;;;;;-6.24;100.00;99066.91;5010323;28;20045;-87
2023/01/18 02:16:15;;;;;;;19.87;7.47;;;;;;;-6.14;100.00;99039.66;5083965;22;20488;-86
2023/01/18 02:18:59;;;;;;;18.70;7.68;;;;;;;-5.90;100.00;99068.84;5048522;28;20033;-86
2023/01/18 02:21:35;;;;;;;28.27;8.38;;;;;;;-5.85;100.00;99063.88;5049445;28;20025;-86
2023/01/18 02:24:34;;;;;;;26.67;7.68;;;;;;;-5.76;100.00;99061.91;5049233;28;20040;-86
2023/01/18 02:27:05;;;;;;;17.02;7.65;;;;;;;-5.71;100.00;99064.72;5028781;28;20061;-86
2023/01/18 02:29:56;;;;;;;19.97;8.53;;;;;;;-5.60;100.00;99072.00;5029603;28;20053;-87
2023/01/18 02:32:47;;;;;;;21.33;8.10;;;;;;;-5.59;100.00;99060.56;5040995;28;20315;-87
2023/01/18 02:35:35;;;;;;;17.00;7.40;;;;;;;-5.60;100.00;99063.34;5049196;28;20040;-86
2023/01/18 02:38:25;;;;;;;18.10;7.68;;;;;;;-5.63;100.00;99081.00;5037689;28;20128;-87
2023/01/18 02:41:08;;;;;;;22.80;7.85;;;;;;;-5.71;100.00;99083.00;5030234;28;20047;-86
2023/01/18 02:46:30;;;;;;;19.63;7.53;;;;;;;-5.77;100.00;99066.31;5041447;28;20043;-87
2023/01/18 02:49:07;;;;;;;21.27;7.63;;;;;;;-5.78;100.00;99080.34;5048739;28;20696;-86
2023/01/18 02:51:34;;;;;;;20.00;7.65;;;;;;;-5.94;100.00;99068.44;5062852;28;20052;-86
2023/01/18 02:54:01;;;;;;;15.40;6.97;;;;;;;-5.95;100.00;99085.88;5055081;28;20431;-86
2023/01/18 02:56:37;;;;;;;17.70;7.65;;;;;;;-6.01;100.00;99081.47;5052623;28;20480;-86
2023/01/18 02:59:20;;;;;;;17.92;7.47;;;;;;;-5.99;100.00;99091.69;5032672;28;20078;-86
2023/01/18 03:01:57;;;;;;;17.80;7.47;;;;;;;-6.05;100.00;99084.66;5015213;28;20068;-86
2023/01/18 03:04:32;;;;;;;14.40;7.13;;;;;;;-6.18;100.00;99060.13;5040706;28;20298;-86
2023/01/18 03:07:09;;;;;;;17.88;7.78;;;;;;;-6.15;100.00;99085.00;5051285;28;20033;-86
2023/01/18 03:09:34;;;;;;;18.90;6.97;;;;;;;-6.17;100.00;99081.75;5052003;28;20036;-86
2023/01/18 03:12:11;;;;;;;19.27;7.67;;;;;;;-6.11;100.00;99099.28;5052113;28;20024;-86
2023/01/18 03:15:04;;;;;;;15.13;7.50;;;;;;;-6.16;100.00;99097.25;5051589;28;20033;-86
2023/01/18 03:17:38;;;;;;;22.15;7.53;;;;;;;-6.24;100.00;99090.38;5033527;28;20665;-86
2023/01/18 03:20:09;;;;;;;19.50;7.15;;;;;;;-6.19;100.00;99092.41;5050375;28;20031;-86
2023/01/18 03:25:37;;;;;;;13.90;7.23;;;;;;;-6.16;100.00;99071.16;5052633;28;20365;-86
2023/01/18 03:33:46;;;;;;;22.63;7.72;;;;;;;-5.92;100.00;99092.50;5052022;28;20036;-86
2023/01/18 03:36:24;;;;;;;18.80;8.02;;;;;;;-5.93;100.00;99081.28;5051382;28;20111;-86
2023/01/18 03:38:56;;;;;;;16.37;7.70;;;;;;;-5.82;100.00;99100.81;5021276;28;20056;-88
2023/01/18 03:41:26;;;;;;;19.33;8.23;;;;;;;-5.85;100.00;99108.22;5053229;28;20267;-88
2023/01/18 03:43:55;;;;;;;17.05;8.00;;;;;;;-5.96;100.00;99097.31;5057730;28;20025;-86
2023/01/18 03:46:23;;;;;;;25.73;8.77;;;;;;;-5.93;100.00;99106.56;5045323;28;20047;-88
2023/01/18 03:48:49;;;;;;;17.08;7.88;;;;;;;-5.93;100.00;99114.38;5058925;28;20045;-86
2023/01/18 03:51:40;;;;;;;20.67;8.70;;;;;;;-5.90;100.00;99115.81;5057475;28;20025;-86
2023/01/18 03:54:14;;;;;;;17.40;8.65;;;;;;;-5.96;100.00;99112.97;5057855;28;20041;-87
2023/01/18 03:57:00;;;;;;;18.98;8.40;;;;;;;-5.84;100.00;99126.28;5036877;28;20108;-87
2023/01/18 03:59:31;;;;;;;17.03;9.00;;;;;;;-5.80;100.00;99118.88;5045382;28;20056;-87
2023/01/18 04:01:57;;;;;;;17.23;9.10;;;;;;;-5.72;100.00;99128.34;5044013;28;20296;-86
2023/01/18 04:04:23;;;;;;;18.88;9.13;;;;;;;-5.76;100.00;99133.16;5047037;28;20033;-86
2023/01/18 04:06:48;;;;;;;26.30;9.77;;;;;;;-5.82;100.00;99128.69;5049254;28;20036;-84
2023/01/18 04:09:14;;;;;;;20.13;9.63;;;;;;;-5.84;100.00;99148.97;5045571;28;20029;-86
2023/01/18 04:11:39;;;;;;;26.23;9.77;;;;;;;-5.87;100.00;99144.13;5051278;28;20032;-86
2023/01/18 04:14:05;;;;;;;21.33;9.80;;;;;;;-5.95;100.00;99132.84;5050526;28;20090;-85
2023/01/18 04:16:30;;;;;;;16.95;8.80;;;;;;;-5.91;100.00;99143.69;5055495;28;20088;-86
2023/01/18 04:18:56;;;;;;;19.73;9.63;;;;;;;-5.95;100.00;99153.72;5051755;28;20075;-85
2023/01/18 04:21:21;;;;;;;18.10;8.90;;;;;;;-6.12;100.00;99139.38;5051778;28;20338;-86
2023/01/18 04:23:46;;;;;;;18.97;8.90;;;;;;;-6.09;100.00;99145.00;5053896;28;20095;-85
2023/01/18 04:26:14;;;;;;;20.48;9.70;;;;;;;-6.05;100.00;99140.25;5052921;28;20037;-83
2023/01/18 04:28:39;;;;;;;21.43;9.30;;;;;;;-5.94;100.00;99152.72;5048892;28;20032;-83
2023/01/18 04:31:04;;;;;;;18.73;9.18;;;;;;;-5.95;100.00;99164.16;5051475;28;20104;-83
2023/01/18 04:33:30;;;;;;;18.17;9.27;;;;;;;-6.08;100.00;99132.78;5049655;28;20021;-83
2023/01/18 04:35:55;;;;;;;20.10;9.93;;;;;;;-5.98;100.00;99159.31;5032951;28;20032;-85
2023/01/18 04:38:20;;;;;;;21.40;10.17;;;;;;;-6.02;100.00;99136.44;5045703;28;20032;-84
2023/01/18 04:40:46;;;;;;;24.63;9.87;;;;;;;-5.99;100.00;99138.66;5050594;28;20369;-85
2023/01/18 04:43:11;;;;;;;22.92;10.75;;;;;;;-5.95;100.00;99148.50;5049739;28;20456;-84
2023/01/18 04:45:38;;;;;;;20.67;9.77;;;;;;;-5.92;100.00;99160.34;5050984;28;20502;-84
2023/01/18 04:48:05;;;;;;;20.08;9.85;;;;;;;-5.90;100.00;99154.94;5043517;28;20060;-84
2023/01/18 04:50:30;;;;;;;23.67;9.57;;;;;;;-5.91;100.00;99161.97;5045700;28;20391;-84
2023/01/18 04:52:56;;;;;;;20.00;9.63;;;;;;;-6.01;100.00;99151.88;5028427;28;20284;-83
2023/01/18 04:55:23;;;;;;;22.52;9.57;;;;;;;-6.12;100.00;99144.59;5049108;28;20470;-83
2023/01/18 04:57:55;;;;;;;21.87;10.13;;;;;;;-5.95;100.00;99165.97;5047328;28;20035;-83
2023/01/18 05:00:21;;;;;;;21.30;8.87;;;;;;;-6.05;100.00;99161.09;5047926;28;20298;-83
2023/01/18 05:02:47;;;;;;;24.33;9.05;;;;;;;-6.10;100.00;99176.50;5039617;28;20025;-83
2023/01/18 05:05:14;;;;;;;19.23;8.65;;;;;;;-6.10;100.00;99171.31;5048666;28;20036;-84
2023/01/18 05:07:39;;;;;;;20.70;9.13;;;;;;;-6.20;100.00;99163.81;5031253;28;20033;-85
2023/01/18 05:10:05;;;;;;;17.23;9.10;;;;;;;-6.16;100.00;99180.69;5049221;28;20029;-84
2023/01/18 05:12:30;;;;;;;21.42;9.40;;;;;;;-6.16;100.00;99187.69;5050684;28;20531;-84
2023/01/18 05:14:55;;;;;;;22.63;9.80;;;;;;;-6.16;100.00;99182.47;5049061;28;20118;-84
2023/01/18 05:17:26;;;;;;;22.27;9.27;;;;;;;-6.13;100.00;99176.88;5049481;28;20029;-84
2023/01/18 05:19:53;;;;;;;17.33;8.90;;;;;;;-6.06;100.00;99192.59;5047169;28;20460;-83
2023/01/18 05:22:20;;;;;;;18.70;9.38;;;;;;;-6.08;100.00;99195.38;5031871;28;20033;-84
2023/01/18 05:24:46;;;;;;;20.00;8.93;;;;;;;-6.13;100.00;99187.31;5032589;28;20025;-84
2023/01/18 05:27:12;;;;;;;18.45;9.70;;;;;;;-6.05;100.00;99204.63;5049938;28;20300;-84
2023/01/18 05:29:38;;;;;;;22.87;10.30;;;;;;;-6.04;100.00;99201.03;5009314;28;20708;-84
2023/01/18 05:32:07;;;;;;;22.75;9.35;;;;;;;-6.13;100.00;99190.75;5043855;28;20103;-85
2023/01/18 05:34:33;;;;;;;21.00;9.80;;;;;;;-5.95;100.00;99208.50;5032365;28;20032;-88
2023/01/18 05:36:58;;;;;;;21.13;9.97;;;;;;;-5.97;100.00;99200.06;5027997;28;20419;-88
2023/01/18 05:39:24;;;;;;;23.02;10.48;;;;;;;-5.91;100.00;99205.50;5050210;28;20472;-88
2023/01/18 05:49:35;;;;;;;20.67;10.33;;;;;;;-5.93;100.00;99206.50;5057113;28;20052;-87
2023/01/18 05:52:00;;;;;;;23.58;11.20;;;;;;;-5.78;100.00;99219.47;5030665;28;20086;-87
2023/01/18 05:54:25;;;;;;;31.33;12.47;;;;;;;-5.67;100.00;99218.13;5054576;28;20052;-87
2023/01/18 05:56:52;;;;;;;26.57;12.00;;;;;;;-5.73;100.00;99205.84;5028084;28;20060;-87
2023/01/18 05:59:18;;;;;;;24.23;11.85;;;;;;;-5.73;100.00;99224.09;5048647;28;20029;-87
2023/01/18 06:01:43;;;;;;;31.85;11.95;;;;;;;-5.74;100.00;99234.72;5025469;28;20096;-87
2023/01/18 06:04:08;;;;;;;24.63;12.43;;;;;;;-5.79;100.00;99232.69;5048332;28;20021;-87
2023/01/18 06:06:34;;;;;;;33.27;14.67;;;;;;;-5.86;100.00;99226.63;5050549;28;20029;-87
2023/01/18 06:09:00;;;;;;;33.27;16.07;;;;;;;-5.69;100.00;99222.75;5049249;28;20027;-87
2023/01/18 06:11:25;;;;;;;36.83;15.13;;;;;;;-5.60;100.00;99226.00;5050324;28;20029;-87
2023/01/18 06:13:52;;;;;;;36.88;15.98;;;;;;;-5.54;100.00;99234.88;5050927;28;20118;-88
2023/01/18 06:16:17;;;;;;;49.27;21.10;;;;;;;-5.56;100.00;99235.03;5064430;28;20171;-87
2023/01/18 06:18:44;;;;;;;40.30;17.00;;;;;;;-5.32;100.00;99256.47;5064136;28;20295;-87
2023/01/18 06:21:10;;;;;;;44.20;17.40;;;;;;;-5.33;100.00;99263.53;5063474;28;20027;-88
2023/01/18 06:23:36;;;;;;;34.70;14.93;;;;;;;-5.50;100.00;99247.34;5055787;28;20070;-88
2023/01/18 06:26:01;;;;;;;27.92;13.20;;;;;;;-5.55;100.00;99254.13;5062618;28;20052;-88
2023/01/18 06:28:27;;;;;;;22.67;12.43;;;;;;;-5.59;100.00;99256.34;5058148;28;20063;-89
2023/01/18 06:30:54;;;;;;;28.83;12.33;;;;;;;-5.57;100.00;99262.19;5056874;28;20037;-88
2023/01/18 06:33:20;;;;;;;23.33;11.93;;;;;;;-5.73;100.00;99242.38;5056788;28;20044;-87
2023/01/18 06:35:47;;;;;;;24.02;12.70;;;;;;;-5.62;100.00;99264.53;5059890;28;20032;-87
2023/01/18 06:38:12;;;;;;;29.42;12.57;;;;;;;-5.59;100.00;99274.59;5062560;28;20040;-88
2023/01/18 06:40:39;;;;;;;29.27;13.87;;;;;;;-5.64;100.00;99266.53;5059500;28;20037;-88
2023/01/18 06:43:06;;;;;;;24.17;12.45;;;;;;;-5.64;100.00;99277.75;5056925;28;20029;-88
2023/01/18 06:45:32;;;;;;;37.50;15.27;;;;;;;-5.67;100.00;99272.94;5054834;28;20021;-87
2023/01/18 06:47:58;;;;;;;36.58;15.88;;;;;;;-5.57;100.00;99283.06;5050186;28;20480;-89
2023/01/18 06:50:23;;;;;;;31.33;14.83;;;;;;;-5.48;100.00;99294.16;5053071;28;20118;-88
2023/01/18 06:52:54;;;;;;;26.27;12.57;;;;;;;-5.51;100.00;99292.72;5053663;28;20025;-87
2023/01/18 06:55:20;;;;;;;28.23;13.57;;;;;;;-5.57;100.00;99283.06;5053690;28;20033;-92
2023/01/18 06:57:46;;;;;;;27.30;14.13;;;;;;;-5.53;100.00;99294.72;5053215;28;20296;-86
2023/01/18 07:00:15;;;;;;;22.23;12.73;;;;;;;-5.49;100.00;99300.38;5032383;28;20047;-89
2023/01/18 07:02:40;;;;;;;23.60;12.20;;;;;;;-5.57;100.00;99308.34;5044671;28;20033;-88
2023/01/18 07:05:06;;;;;;;30.87;13.10;;;;;;;-5.67;100.00;99298.22;5053912;28;20512;-88
2023/01/18 07:07:32;;;;;;;25.00;12.52;;;;;;;-5.69;100.00;99302.81;5055280;28;20025;-88
2023/01/18 07:09:58;;;;;;;33.37;12.93;;;;;;;-5.62;100.00;99312.31;5053424;28;20024;-88
2023/01/18 07:12:23;;;;;;;29.02;13.25;;;;;;;-5.68;100.00;99307.88;5055835;28;20033;-88
2023/01/18 07:14:52;;;;;;;29.10;14.07;;;;;;;-5.84;100.00;99298.50;5034013;28;20109;-88
2023/01/18 07:17:18;;;;;;;28.40;13.10;;;;;;;-5.64;100.00;99319.53;5049369;28;20051;-90
2023/01/18 07:19:44;;;;;;;27.73;12.82;;;;;;;-5.54;100.00;99321.03;5060237;28;20033;-88
2023/01/18 07:22:09;;;;;;;31.10;14.63;;;;;;;-5.58;100.00;99318.00;5050660;28;20021;-89
2023/01/18 07:24:34;;;;;;;23.57;12.67;;;;;;;-5.52;100.00;99326.88;5053719;28;20396;-89
2023/01/18 07:27:00;;;;;;;26.33;12.47;;;;;;;-5.63;100.00;99325.56;5032365;28;20033;-88
2023/01/18 07:29:27;;;;;;;28.92;13.57;;;;;;;-5.57;100.00;99329.22;5056504;28;20087;-88
2023/01/18 07:31:52;;;;;;;32.90;12.80;;;;;;;-5.64;100.00;99319.53;5043567;28;20033;-88
2023/01/18 07:34:17;;;;;;;26.42;12.82;;;;;;;-5.58;100.00;99338.03;5054210;28;20035;-88
2023/01/18 07:36:43;;;;;;;23.50;11.90;;;;;;;-5.52;100.00;99338.09;5049516;28;20354;-89
2023/01/18 07:39:09;;;;;;;32.87;13.27;;;;;;;-5.50;100.00;99338.72;5053594;28;20080;-89
2023/01/18 07:41:44;;;;;;;34.28;13.45;;;;;;;-5.47;100.00;99340.13;5053955;28;20114;-89
2023/01/18 07:44:10;;;;;;;31.98;13.73;;;;;;;-5.65;100.00;99317.91;5048801;28;20048;-88
2023/01/18 07:46:36;;;;;;;28.50;13.65;;;;;;;-5.57;100.00;99324.81;5052643;28;20029;-90
2023/01/18 07:49:04;;;;;;;30.90;14.83;;;;;;;-5.37;100.00;99350.25;5055675;28;20040;-92
2023/01/18 07:51:32;;;;;;;27.08;12.98;;;;;;;-5.33;100.00;99346.28;5053185;28;20033;-92
2023/01/18 07:53:57;;;;;;;29.00;13.32;;;;;;;-5.24;100.00;99352.16;5051248;28;20112;-89
2023/01/18 07:56:26;;;;;;;33.93;14.17;;;;;;;-5.27;100.00;99347.31;5046030;28;20133;-89
2023/01/18 07:58:52;;;;;;;33.42;13.02;;;;;;;-5.24;100.00;99354.78;5048026;28;20095;-90
2023/01/18 08:01:19;;;;;;;26.77;14.20;;;;;;;-5.18;100.00;99360.03;5052268;28;20029;-89
2023/01/18 08:03:46;;;;;;;34.73;13.13;;;;;;;-5.17;100.00;99355.63;5054623;28;20036;-89
2023/01/18 08:06:15;;;;;;;32.33;14.63;;;;;;;-5.09;100.00;99368.53;5043995;28;20387;-88
2023/01/18 08:08:41;;;;;;;29.63;14.65;;;;;;;-5.03;100.00;99373.00;5042678;28;20400;-89
2023/01/18 08:11:11;;;;;;;27.83;14.50;;;;;;;-5.15;100.00;99347.59;5032869;28;20033;-88
2023/01/18 08:13:37;;;;;;;31.92;15.30;;;;;;;-4.98;100.00;99367.19;5044068;28;20025;-88
2023/01/18 08:16:07;;;;;;;38.00;15.00;;;;;;;-4.86;100.00;99388.38;5056550;28;20032;-87
2023/01/18 08:18:32;;;;;;;29.92;14.43;;;;;;;-4.82;100.00;99383.56;5069939;28;20025;-87
2023/01/18 08:20:58;;;;;;;36.27;15.77;;;;;;;-4.90;100.00;99377.50;5068882;28;20055;-88
2023/01/18 08:23:24;;;;;;;31.98;14.77;;;;;;;-4.76;100.00;99390.66;5072536;28;20017;-87
2023/01/18 08:25:49;;;;;;;42.83;16.53;;;;;;;-4.71;100.00;99394.28;5068380;28;20005;-89
2023/01/18 08:28:15;;;;;;;32.65;14.63;;;;;;;-4.71;100.00;99391.69;5073848;28;20033;-89
2023/01/18 08:30:44;;;;;;;26.67;14.25;;;;;;;-4.62;100.00;99396.78;5068827;28;20036;-92
2023/01/18 08:33:17;;;;;;;27.95;13.40;;;;;;;-4.63;100.00;99395.16;5066274;28;20021;-94
2023/01/18 08:35:45;;;;;;;35.40;14.20;;;;;;;-4.58;100.00;99396.19;5066479;28;20059;-90
2023/01/18 08:38:13;;;;;;;31.10;15.40;;;;;;;-4.52;100.00;99399.81;5063714;28;20298;-87
2023/01/18 08:40:39;;;;;;;33.95;14.15;;;;;;;-4.47;100.00;99405.28;5070920;28;20045;-88
2023/01/18 08:43:05;;;;;;;29.27;15.10;;;;;;;-4.39;100.00;99406.13;5064381;28;20041;-90
2023/01/18 08:45:31;;;;;;;28.53;15.63;;;;;;;-4.37;100.00;99411.97;5058664;28;20295;-87
2023/01/18 08:47:57;;;;;;;33.30;14.57;;;;;;;-4.31;100.00;99421.66;5067559;28;20040;-90
2023/01/18 08:50:24;;;;;;;28.00;14.63;;;;;;;-4.33;100.00;99423.66;5071220;28;20043;-87
2023/01/18 08:52:51;;;;;;;30.48;14.07;;;;;;;-4.37;100.00;99425.84;5065583;28;20040;-88
2023/01/18 08:55:17;;;;;;;33.13;14.25;;;;;;;-4.30;100.00;99434.56;5063227;28;20040;-89
2023/01/18 08:57:42;;;;;;;29.93;14.57;;;;;;;-4.29;100.00;99425.69;5074982;28;20009;-89
2023/01/18 09:00:09;;;;;;;31.27;13.73;;;;;;;-4.30;100.00;99423.25;5074067;28;20055;-87
2023/01/18 09:02:34;;;;;;;30.77;15.20;;;;;;;-4.20;100.00;99430.75;5070313;28;20024;-89
2023/01/18 09:07:49;;;;;;;25.73;13.13;;;;;;;-4.21;100.00;99422.13;5677178;22;20321;-91
2023/01/18 09:18:24;;;;;;;27.95;15.07;;;;;;;-3.87;100.00;99449.19;6018440;22;21589;-88
2023/01/18 09:20:53;;;;;;;28.13;13.00;;;;;;;-3.92;100.00;99441.13;5057672;28;22549;-88
2023/01/18 09:23:18;;;;;;;34.13;15.82;;;;;;;-3.78;100.00;99456.88;5059051;28;20032;-87
2023/01/18 09:25:44;;;;;;;30.43;13.87;;;;;;;-3.85;100.00;99444.59;5066642;28;20005;-88
2023/01/18 09:28:10;;;;;;;28.25;13.98;;;;;;;-3.93;100.00;99434.28;5057512;28;20036;-89
2023/01/18 09:30:36;;;;;;;28.73;12.47;;;;;;;-3.70;100.00;99465.34;5049149;28;20037;-89
2023/01/18 09:33:01;;;;;;;23.23;12.67;;;;;;;-3.76;100.00;99447.81;5046921;28;20346;-89
2023/01/18 09:35:27;;;;;;;24.53;12.30;;;;;;;-3.62;100.00;99482.69;5048223;28;20098;-89
2023/01/18 09:37:53;;;;;;;33.07;13.80;;;;;;;-3.55;100.00;99486.16;5054557;28;20089;-89
2023/01/18 09:40:21;;;;;;;28.95;12.85;;;;;;;-3.46;100.00;99485.94;5065875;28;20092;-89
2023/01/18 09:42:50;;;;;;;24.73;12.57;;;;;;;-3.42;100.00;99490.63;5062634;28;20021;-90
2023/01/18 09:45:38;;;;;;;27.70;12.68;;;;;;;-3.48;100.00;99467.03;5048290;28;20493;-89
2023/01/18 09:48:15;;;;;;;25.47;11.77;;;;;;;-3.35;100.00;99499.28;5058994;28;20063;-89
2023/01/18 09:50:44;;;;;;;28.38;12.60;;;;;;;-3.29;100.00;99491.63;5048488;28;20045;-90
2023/01/18 09:53:28;;;;;;;28.65;13.30;;;;;;;-3.23;100.00;99506.56;5053440;28;20045;-89
2023/01/18 09:56:06;;;;;;;27.13;13.85;;;;;;;-3.14;100.00;99507.97;5041218;28;20057;-89
2023/01/18 09:58:55;;;;;;;26.52;12.90;;;;;;;-3.14;100.00;99497.50;5037761;28;20061;-92
2023/01/18 10:01:27;;;;;;;30.67;12.70;;;;;;;-3.01;100.00;99504.56;5058022;28;20040;-92
2023/01/18 10:03:58;;;;;;;27.63;13.33;;;;;;;-2.93;100.00;99509.63;5048962;28;20324;-92
2023/01/18 10:06:28;;;;;;;26.27;13.27;;;;;;;-2.82;100.00;99504.78;5063604;28;20038;-93
2023/01/18 10:09:03;;;;;;;28.25;13.68;;;;;;;-2.79;100.00;99493.88;5065360;28;20083;-93
2023/01/18 10:11:44;;;;;;;28.95;13.40;;;;;;;-2.64;100.00;99514.63;5037742;28;20060;-92
2023/01/18 10:14:20;;;;;;;25.48;14.10;;;;;;;-2.56;100.00;99511.03;5034650;28;20041;-92
2023/01/18 10:17:00;;;;;;;26.50;13.43;;;;;;;-2.61;100.00;99501.94;5036183;28;20056;-92
2023/01/18 10:19:28;;;;;;;21.87;11.97;;;;;;;-2.48;100.00;99516.03;5036030;28;20291;-92
2023/01/18 10:22:05;;;;;;;28.70;12.35;;;;;;;-2.46;100.00;99514.03;5037593;28;20447;-92
2023/01/18 10:24:41;;;;;;;30.08;14.40;;;;;;;-2.40;100.00;99521.09;5058216;28;20358;-93
2023/01/18 10:27:16;;;;;;;21.08;12.98;;;;;;;-2.33;100.00;99515.81;5039326;28;20385;-93
2023/01/18 10:29:53;;;;;;;29.88;13.68;;;;;;;-2.23;100.00;99515.41;5039959;28;20032;-94
2023/01/18 10:32:22;;;;;;;23.70;13.03;;;;;;;-2.17;100.00;99519.81;5057077;28;20026;-93
2023/01/18 10:34:50;;;;;;;26.70;13.48;;;;;;;-2.19;100.00;99511.38;5037914;28;20026;-93
2023/01/18 10:37:28;;;;;;;29.23;13.00;;;;;;;-2.11;100.00;99518.22;5031239;28;20033;-93
2023/01/18 10:39:59;;;;;;;29.98;13.63;;;;;;;-2.09;100.00;99519.59;5033534;28;20122;-93
2023/01/18 10:42:30;;;;;;;24.45;13.35;;;;;;;-2.12;100.00;99506.88;5035975;28;20037;-92
2023/01/18 10:44:56;;;;;;;22.87;12.90;;;;;;;-2.00;100.00;99526.22;5034016;28;20025;-93
2023/01/18 10:47:21;;;;;;;25.97;14.67;;;;;;;-1.91;100.00;99523.38;5035492;28;20350;-93
2023/01/18 10:49:53;;;;;;;29.15;14.57;;;;;;;-1.85;100.00;99527.81;5041470;28;20025;-94
2023/01/18 10:52:30;;;;;;;25.80;14.50;;;;;;;-1.79;100.00;99526.19;5040548;28;20389;-93
2023/01/18 10:55:01;;;;;;;24.20;12.63;;;;;;;-1.74;100.00;99521.91;5043629;28;20047;-93
2023/01/18 10:57:46;;;;;;;20.58;12.88;;;;;;;-1.70;100.00;99530.97;5035356;28;20117;-94
2023/01/18 11:00:33;;;;;;;22.95;11.93;;;;;;;-1.70;100.00;99533.63;5029771;28;20680;-92
2023/01/18 11:03:01;;;;;;;24.35;13.13;;;;;;;-1.65;100.00;99527.72;5028348;28;20086;-93
2023/01/18 11:05:36;;;;;;;28.70;13.77;;;;;;;-1.62;100.00;99532.56;5020320;28;20484;-93
2023/01/18 11:08:24;;;;;;;28.27;13.77;;;;;;;-1.56;100.00;99529.13;5036446;28;20845;-93
2023/01/18 11:11:13;;;;;;;24.23;12.75;;;;;;;-1.50;100.00;99532.72;5046027;28;20038;-93
2023/01/18 11:13:43;;;;;;;19.35;12.48;;;;;;;-1.47;100.00;99540.19;5035433;28;20536;-93
2023/01/18 11:16:27;;;;;;;25.50;13.80;;;;;;;-1.48;100.00;99529.88;5032710;28;20047;-90
2023/01/18 11:19:00;;;;;;;26.77;11.60;;;;;;;-1.46;100.00;99533.88;5039243;28;20033;-90
2023/01/18 11:21:39;;;;;;;20.60;12.37;;;;;;;-1.51;100.00;99528.47;5042522;28;20037;-88
2023/01/18 11:24:13;;;;;;;19.75;12.15;;;;;;;-1.38;100.00;99544.16;5040534;28;20032;-89
2023/01/18 11:27:00;;;;;;;20.25;11.90;;;;;;;-1.30;100.00;99550.22;5056651;28;20014;-88
2023/01/18 11:29:35;;;;;;;27.63;12.32;;;;;;;-1.60;100.00;99490.31;5052312;28;20052;-89
2023/01/18 11:32:32;;;;;;;26.60;11.77;;;;;;;-1.31;100.00;99517.06;5043419;28;20029;-89
2023/01/18 11:34:58;;;;;;;20.33;11.30;;;;;;;-1.37;100.00;99495.84;5039854;28;20037;-89
2023/01/18 11:37:44;;;;;;;24.97;11.63;;;;;;;-1.13;100.00;99525.03;5034685;28;20303;-88
2023/01/18 11:40:19;;;;;;;20.60;11.25;;;;;;;-1.08;100.00;99527.81;5035235;28;20022;-89
2023/01/18 11:42:51;;;;;;;18.52;11.52;;;;;;;-1.04;100.00;99522.94;5035380;28;20033;-91
2023/01/18 11:45:32;;;;;;;20.52;10.48;;;;;;;-0.93;100.00;99534.59;5045618;28;20025;-91
2023/01/18 11:48:19;;;;;;;25.10;11.05;;;;;;;-0.82;100.00;99528.63;5054617;28;20037;-92
2023/01/18 11:50:54;;;;;;;22.97;11.80;;;;;;;-0.74;100.00;99537.31;5020274;28;20104;-92
2023/01/18 11:53:30;;;;;;;18.57;10.23;;;;;;;-0.70;100.00;99530.56;5033782;28;20302;-91
2023/01/18 11:56:05;;;;;;;18.58;10.15;;;;;;;-0.88;100.00;99505.81;5038721;28;20089;-90
2023/01/18 11:58:33;;;;;;;19.45;9.02;;;;;;;-0.58;100.00;99541.19;5047667;28;20030;-90
2023/01/18 12:01:01;;;;;;;14.80;9.18;;;;;;;-0.54;100.00;99545.81;5037083;28;20056;-91
2023/01/18 12:03:46;;;;;;;25.77;10.63;;;;;;;-0.41;100.00;99541.47;5055022;28;20026;-91
2023/01/18 12:06:40;;;;;;;15.83;9.17;;;;;;;-0.28;100.00;99545.81;5035018;28;20056;-90
2023/01/18 12:09:11;;;;;;;17.43;8.40;;;;;;;-0.20;100.00;99545.50;5031950;28;20299;-90
2023/01/18 12:12:01;;;;;;;16.38;7.93;;;;;;;-0.19;100.00;99544.50;5033677;28;20041;-91
2023/01/18 12:14:38;;;;;;;15.93;8.27;;;;;;;-0.07;100.00;99558.53;5015948;28;20037;-91
2023/01/18 12:17:56;;;;;;;14.10;8.05;;;;;;;-0.35;100.00;99509.81;5041547;28;20436;-90
2023/01/18 12:20:48;;;;;;;15.75;8.20;;;;;;;0.06;100.00;99569.97;4977181;28;20136;-91
2023/01/18 12:24:12;;;;;;;11.63;7.57;;;;;;;0.11;100.00;99564.84;4996747;28;20041;-91